createdAt,value
2022-09-17T00:01:15.381Z,99.90
2022-09-17T00:03:19.212Z,99.90
2022-09-17T00:05:22.623Z,99.90
2022-09-17T00:07:25.627Z,99.90
2022-09-17T00:09:28.853Z,99.90
2022-09-17T00:11:35.864Z,99.90
2022-09-17T00:13:39.162Z,99.90
2022-09-17T00:15:43.008Z,99.90
2022-09-17T00:17:47.308Z,99.90
2022-09-17T00:19:50.283Z,99.90
2022-09-17T00:21:53.187Z,99.90
2022-09-17T00:23:57.531Z,99.90
2022-09-17T00:26:00.277Z,99.90
2022-09-17T00:28:03.233Z,99.90
2022-09-17T00:30:07.141Z,99.90
2022-09-17T00:32:10.424Z,99.90
2022-09-17T00:34:14.634Z,99.90
2022-09-17T00:36:17.703Z,99.90
2022-09-17T00:38:20.644Z,99.90
2022-09-17T00:40:23.634Z,99.90
2022-09-17T00:42:26.753Z,99.90
2022-09-17T00:44:46.190Z,99.90
2022-09-17T00:46:50.800Z,99.90
2022-09-17T00:48:56.064Z,99.90
2022-09-17T00:51:02.200Z,99.90
2022-09-17T00:53:09.015Z,99.90
2022-09-17T00:55:17.654Z,99.90
2022-09-17T00:57:21.200Z,99.90
2022-09-17T00:59:24.501Z,99.90
2022-09-17T01:01:27.301Z,99.90
2022-09-17T01:03:30.358Z,99.90
2022-09-17T01:05:40.922Z,99.90
2022-09-17T01:08:01.320Z,99.90
2022-09-17T01:10:15.986Z,99.90
2022-09-17T01:12:39.169Z,99.90
2022-09-17T01:14:57.739Z,99.90
2022-09-17T01:17:08.463Z,99.90
2022-09-17T01:19:38.395Z,99.90
2022-09-17T01:21:55.727Z,99.90
2022-09-17T01:24:26.214Z,99.90
2022-09-17T01:26:51.058Z,99.90
2022-09-17T01:29:02.194Z,99.90
2022-09-17T01:31:20.239Z,99.90
2022-09-17T01:33:29.298Z,99.90
2022-09-17T01:35:38.177Z,99.90
2022-09-17T01:37:53.484Z,99.90
2022-09-17T01:40:04.842Z,99.90
2022-09-17T01:42:15.878Z,99.90
2022-09-17T01:44:24.389Z,99.90
2022-09-17T01:46:32.862Z,99.90
2022-09-17T01:48:40.692Z,99.90
2022-09-17T01:50:49.451Z,99.90
2022-09-17T01:52:55.558Z,99.90
2022-09-17T01:55:03.099Z,99.90
2022-09-17T01:57:10.034Z,99.90
2022-09-17T01:59:18.708Z,99.90
2022-09-17T02:01:23.809Z,99.90
2022-09-17T02:03:33.717Z,99.90
2022-09-17T02:05:41.306Z,99.90
2022-09-17T02:07:51.295Z,99.90
2022-09-17T02:10:01.509Z,99.90
2022-09-17T02:12:08.945Z,99.90
2022-09-17T02:14:16.556Z,99.90
2022-09-17T02:16:25.349Z,99.90
2022-09-17T02:18:35.231Z,99.90
2022-09-17T02:20:44.299Z,99.90
2022-09-17T02:22:51.100Z,99.90
2022-09-17T02:25:02.325Z,99.90
2022-09-17T02:27:10.103Z,99.90
2022-09-17T02:29:19.124Z,99.90
2022-09-17T02:31:22.694Z,99.90
2022-09-17T02:33:27.537Z,99.90
2022-09-17T02:35:33.165Z,99.90
2022-09-17T02:37:35.875Z,99.90
2022-09-17T02:39:38.699Z,99.90
2022-09-17T02:41:50.673Z,99.90
2022-09-17T02:44:00.281Z,99.90
2022-09-17T02:46:15.426Z,99.90
2022-09-17T02:48:46.677Z,99.90
2022-09-17T02:51:12.609Z,99.90
2022-09-17T02:53:33.258Z,99.90
2022-09-17T02:55:42.705Z,99.90
2022-09-17T02:57:53.391Z,99.90
2022-09-17T03:00:04.434Z,99.90
2022-09-17T03:02:14.293Z,99.90
2022-09-17T03:04:19.019Z,99.90
2022-09-17T03:06:23.953Z,99.90
2022-09-17T03:08:30.644Z,99.90
2022-09-17T03:10:33.675Z,99.90
2022-09-17T03:12:39.795Z,99.90
2022-09-17T03:14:42.725Z,99.90
2022-09-17T03:16:45.720Z,99.90
2022-09-17T03:18:48.428Z,99.90
2022-09-17T03:20:51.123Z,99.90
2022-09-17T03:22:55.376Z,99.90
2022-09-17T03:24:58.138Z,99.90
2022-09-17T03:27:00.832Z,99.90
2022-09-17T03:29:03.649Z,99.90
2022-09-17T03:31:06.724Z,99.90
2022-09-17T03:33:09.568Z,99.90
2022-09-17T03:35:12.347Z,99.90
2022-09-17T03:37:15.103Z,99.90
2022-09-17T03:39:19.193Z,99.90
2022-09-17T03:41:21.880Z,99.90
2022-09-17T03:43:24.844Z,99.90
2022-09-17T03:45:27.756Z,99.90
2022-09-17T03:47:31.280Z,99.90
2022-09-17T03:49:34.024Z,99.90
2022-09-17T03:51:37.072Z,99.90
2022-09-17T03:53:39.936Z,99.90
2022-09-17T03:55:45.175Z,99.90
2022-09-17T03:57:47.859Z,99.90
2022-09-17T03:59:50.665Z,99.90
2022-09-17T04:01:53.877Z,99.90
2022-09-17T04:03:56.865Z,99.90
2022-09-17T04:05:59.654Z,99.90
2022-09-17T04:08:02.942Z,99.90
2022-09-17T04:10:06.451Z,99.90
2022-09-17T04:12:10.504Z,99.90
2022-09-17T04:14:13.406Z,99.90
2022-09-17T04:16:16.183Z,99.90
2022-09-17T04:18:18.982Z,99.90
2022-09-17T04:20:21.769Z,99.90
2022-09-17T04:22:24.608Z,99.90
2022-09-17T04:24:27.503Z,99.90
2022-09-17T04:26:30.414Z,99.90
2022-09-17T04:28:34.609Z,99.90
2022-09-17T04:30:37.350Z,99.90
2022-09-17T04:32:45.380Z,99.90
2022-09-17T04:34:48.232Z,99.90
2022-09-17T04:36:51.136Z,99.90
2022-09-17T04:38:54.432Z,99.90
2022-09-17T04:40:57.834Z,99.90
2022-09-17T04:43:03.020Z,99.90
2022-09-17T04:45:08.107Z,99.90
2022-09-17T04:47:11.260Z,99.90
2022-09-17T04:49:14.161Z,99.90
2022-09-17T04:51:16.845Z,99.90
2022-09-17T04:53:19.955Z,99.90
2022-09-17T04:55:22.705Z,99.90
2022-09-17T04:57:26.120Z,99.90
2022-09-17T04:59:28.839Z,99.90
2022-09-17T05:01:33.056Z,99.90
2022-09-17T05:03:36.319Z,99.90
2022-09-17T05:05:38.971Z,99.90
2022-09-17T05:07:42.632Z,99.90
2022-09-17T05:09:47.227Z,99.90
2022-09-17T05:11:51.129Z,99.90
2022-09-17T05:13:54.000Z,99.90
2022-09-17T05:15:57.347Z,99.90
2022-09-17T05:18:01.434Z,99.90
2022-09-17T05:20:04.496Z,99.90
2022-09-17T05:22:07.268Z,99.90
2022-09-17T05:24:10.124Z,99.90
2022-09-17T05:26:13.100Z,99.90
2022-09-17T05:28:18.457Z,99.90
2022-09-17T05:30:21.933Z,99.90
2022-09-17T05:32:27.328Z,99.90
2022-09-17T05:34:31.818Z,99.90
2022-09-17T05:36:34.919Z,99.90
2022-09-17T05:38:38.135Z,99.90
2022-09-17T05:40:40.817Z,99.90
2022-09-17T05:42:43.751Z,99.90
2022-09-17T05:44:46.489Z,99.90
2022-09-17T05:46:49.314Z,99.90
2022-09-17T05:48:51.999Z,99.90
2022-09-17T05:50:57.326Z,99.90
2022-09-17T05:53:05.833Z,99.90
2022-09-17T05:55:09.485Z,99.90
2022-09-17T05:57:14.284Z,99.90
2022-09-17T05:59:17.366Z,99.90
2022-09-17T06:01:20.063Z,99.90
2022-09-17T06:03:23.727Z,99.90
2022-09-17T06:05:26.548Z,99.90
2022-09-17T06:07:30.636Z,99.90
2022-09-17T06:09:33.624Z,99.90
2022-09-17T06:11:37.141Z,99.90
2022-09-17T06:13:39.863Z,99.90
2022-09-17T06:15:43.279Z,99.90
2022-09-17T06:17:46.210Z,99.90
2022-09-17T06:19:49.180Z,99.90
2022-09-17T06:21:51.968Z,99.90
2022-09-17T06:23:56.535Z,99.90
2022-09-17T06:26:00.986Z,99.90
2022-09-17T06:28:03.850Z,99.90
2022-09-17T06:30:10.335Z,99.90
2022-09-17T06:32:15.480Z,99.90
2022-09-17T06:34:18.768Z,99.90
2022-09-17T06:36:24.499Z,99.90
2022-09-17T06:38:29.413Z,99.90
2022-09-17T06:40:34.591Z,99.90
2022-09-17T06:42:37.568Z,99.90
2022-09-17T06:44:41.021Z,99.90
2022-09-17T06:46:44.068Z,99.90
2022-09-17T06:48:46.924Z,99.90
2022-09-17T06:50:49.896Z,99.90
2022-09-17T06:52:54.404Z,99.90
2022-09-17T06:54:57.514Z,99.90
2022-09-17T06:57:01.561Z,99.90
2022-09-17T06:59:04.935Z,99.90
2022-09-17T07:01:10.600Z,99.90
2022-09-17T07:03:13.632Z,99.90
2022-09-17T07:05:19.197Z,99.90
2022-09-17T07:07:22.085Z,99.90
2022-09-17T07:09:24.812Z,99.90
2022-09-17T07:11:27.482Z,99.90
2022-09-17T07:13:31.880Z,99.90
2022-09-17T07:15:34.800Z,99.90
2022-09-17T07:17:40.457Z,99.90
2022-09-17T07:19:43.257Z,99.90
2022-09-17T07:21:46.013Z,99.90
2022-09-17T07:23:48.770Z,99.90
2022-09-17T07:25:54.930Z,99.90
2022-09-17T07:27:57.763Z,99.90
2022-09-17T07:30:01.878Z,99.90
2022-09-17T07:32:04.651Z,99.90
2022-09-17T07:34:07.416Z,99.90
2022-09-17T07:36:13.660Z,99.90
2022-09-17T07:38:17.057Z,99.90
2022-09-17T07:40:19.888Z,99.90
2022-09-17T07:42:22.831Z,99.90
2022-09-17T07:44:25.534Z,99.90
2022-09-17T07:46:29.977Z,99.90
2022-09-17T07:48:33.348Z,99.90
2022-09-17T07:50:36.052Z,99.90
2022-09-17T07:52:38.743Z,99.90
2022-09-17T07:54:42.499Z,99.90
2022-09-17T07:56:45.858Z,99.90
2022-09-17T07:58:48.741Z,99.90
2022-09-17T08:00:51.795Z,99.90
2022-09-17T08:02:56.517Z,99.90
2022-09-17T08:04:59.442Z,99.90
2022-09-17T08:07:02.320Z,99.90
2022-09-17T08:09:05.218Z,99.90
2022-09-17T08:11:13.171Z,99.90
2022-09-17T08:13:15.836Z,99.90
2022-09-17T08:15:19.272Z,99.90
2022-09-17T08:17:22.255Z,99.90
2022-09-17T08:19:28.080Z,99.90
2022-09-17T08:21:31.707Z,99.90
2022-09-17T08:23:36.903Z,99.90
2022-09-17T08:25:39.606Z,99.90
2022-09-17T08:27:42.497Z,99.90
2022-09-17T08:29:45.172Z,99.90
2022-09-17T08:31:48.170Z,99.90
2022-09-17T08:33:51.502Z,99.90
2022-09-17T08:35:59.302Z,99.90
2022-09-17T08:38:02.412Z,99.90
2022-09-17T08:40:05.577Z,99.90
2022-09-17T08:42:15.279Z,99.90
2022-09-17T08:44:25.330Z,99.90
2022-09-17T08:46:29.879Z,99.90
2022-09-17T08:48:42.218Z,99.90
2022-09-17T08:50:45.003Z,99.90
2022-09-17T08:53:06.347Z,99.90
2022-09-17T08:55:21.492Z,99.90
2022-09-17T08:57:32.894Z,99.90
2022-09-17T08:59:40.865Z,99.90
2022-09-17T09:01:49.268Z,99.90
2022-09-17T09:04:11.080Z,99.90
2022-09-17T09:06:16.030Z,99.90
2022-09-17T09:08:29.812Z,99.90
2022-09-17T09:10:37.904Z,99.90
2022-09-17T09:12:41.405Z,99.90
2022-09-17T09:14:51.200Z,99.90
2022-09-17T09:16:57.485Z,99.90
2022-09-17T09:19:15.345Z,99.90
2022-09-17T09:21:27.783Z,99.90
2022-09-17T09:23:41.840Z,99.90
2022-09-17T09:25:55.436Z,99.90
2022-09-17T09:28:07.065Z,99.90
2022-09-17T09:30:13.327Z,99.90
2022-09-17T09:32:29.271Z,99.90
2022-09-17T09:34:34.996Z,99.90
2022-09-17T09:36:39.370Z,99.90
2022-09-17T09:38:51.781Z,99.90
2022-09-17T09:40:58.969Z,99.90
2022-09-17T09:43:10.243Z,99.90
2022-09-17T09:45:16.113Z,99.90
2022-09-17T09:47:43.302Z,99.90
2022-09-17T09:50:03.388Z,99.90
2022-09-17T09:52:23.171Z,99.90
2022-09-17T09:54:42.388Z,99.90
2022-09-17T09:56:56.538Z,99.90
2022-09-17T09:58:59.376Z,99.90
2022-09-17T10:01:02.443Z,99.90
2022-09-17T10:03:13.974Z,99.90
2022-09-17T10:05:16.892Z,99.90
2022-09-17T10:07:19.728Z,99.90
2022-09-17T10:09:23.788Z,99.90
2022-09-17T10:11:29.827Z,99.90
2022-09-17T10:13:35.530Z,99.90
2022-09-17T10:15:38.818Z,99.90
2022-09-17T10:17:41.656Z,99.90
2022-09-17T10:19:45.737Z,99.90
2022-09-17T10:21:48.533Z,99.90
2022-09-17T10:23:51.916Z,99.90
2022-09-17T10:25:56.394Z,99.90
2022-09-17T10:28:04.094Z,99.90
2022-09-17T10:30:16.955Z,99.90
2022-09-17T10:32:21.591Z,99.90
2022-09-17T10:34:26.832Z,99.90
2022-09-17T10:36:41.952Z,99.90
2022-09-17T10:38:47.202Z,99.90
2022-09-17T10:40:49.885Z,99.90
2022-09-17T10:43:19.703Z,99.90
2022-09-17T10:45:26.092Z,99.90
2022-09-17T10:47:31.857Z,99.90
2022-09-17T10:49:40.839Z,99.90
2022-09-17T10:51:43.595Z,99.90
2022-09-17T10:54:09.347Z,99.90
2022-09-17T10:56:22.851Z,99.90
2022-09-17T10:58:42.393Z,99.90
2022-09-17T11:00:53.254Z,99.90
2022-09-17T11:03:23.276Z,99.90
2022-09-17T11:05:44.957Z,99.80
2022-09-17T11:07:54.323Z,99.90
2022-09-17T11:10:06.803Z,98.80
2022-09-17T11:12:32.595Z,97.90
2022-09-17T11:14:50.953Z,98.70
2022-09-17T11:17:05.223Z,99.40
2022-09-17T11:19:20.736Z,99.90
2022-09-17T11:21:49.331Z,99.90
2022-09-17T11:24:19.323Z,99.90
2022-09-17T11:26:33.828Z,99.90
2022-09-17T11:28:56.619Z,99.20
2022-09-17T11:31:14.987Z,99.20
2022-09-17T11:33:45.199Z,99.40
2022-09-17T11:35:50.244Z,97.90
2022-09-17T11:38:00.036Z,96.70
2022-09-17T11:40:09.809Z,97.30
2022-09-17T11:42:17.016Z,97.00
2022-09-17T11:44:26.563Z,97.40
2022-09-17T11:46:36.052Z,97.50
2022-09-17T11:48:46.389Z,96.70
2022-09-17T11:50:53.146Z,94.10
2022-09-17T11:53:07.926Z,94.80
2022-09-17T11:55:21.730Z,95.70
2022-09-17T11:57:28.624Z,97.50
2022-09-17T11:59:38.200Z,98.40
2022-09-17T12:01:47.622Z,98.20
2022-09-17T12:03:53.928Z,98.50
2022-09-17T12:05:58.997Z,99.00
2022-09-17T12:08:14.557Z,99.10
2022-09-17T12:10:35.171Z,99.30
2022-09-17T12:12:50.057Z,99.40
2022-09-17T12:14:58.312Z,99.90
2022-09-17T12:17:05.300Z,99.90
2022-09-17T12:19:15.486Z,99.90
2022-09-17T12:21:22.257Z,99.90
2022-09-17T12:23:38.522Z,99.90
2022-09-17T12:25:49.112Z,99.90
2022-09-17T12:27:59.375Z,99.40
2022-09-17T12:30:13.370Z,99.40
2022-09-17T12:32:34.334Z,99.90
2022-09-17T12:34:50.276Z,99.90
2022-09-17T12:37:03.081Z,99.90
2022-09-17T12:39:53.769Z,99.90
2022-09-17T12:42:06.256Z,99.90
2022-09-17T12:44:24.460Z,99.90
2022-09-17T12:46:50.748Z,99.90
2022-09-17T12:49:08.378Z,99.90
2022-09-17T12:51:27.138Z,99.90
2022-09-17T12:53:34.703Z,99.90
2022-09-17T12:55:50.603Z,99.90
2022-09-17T12:58:03.488Z,99.90
2022-09-17T13:00:11.103Z,99.90
2022-09-17T13:02:18.024Z,99.90
2022-09-17T13:05:01.478Z,99.90
2022-09-17T13:07:40.125Z,99.90
2022-09-17T13:10:17.791Z,99.90
2022-09-17T13:12:31.288Z,99.90
2022-09-17T13:15:01.176Z,99.90
2022-09-17T13:17:09.043Z,99.90
2022-09-17T13:19:22.487Z,99.90
2022-09-17T13:21:34.908Z,99.10
2022-09-17T13:23:42.117Z,99.90
2022-09-17T13:25:52.000Z,99.90
2022-09-17T13:28:08.024Z,99.90
2022-09-17T13:30:12.469Z,99.90
2022-09-17T13:32:55.960Z,99.90
2022-09-17T13:34:58.719Z,99.90
2022-09-17T13:37:03.989Z,99.90
2022-09-17T13:39:08.741Z,99.90
2022-09-17T13:41:21.579Z,99.90
2022-09-17T13:43:27.992Z,99.90
2022-09-17T13:45:31.984Z,99.90
2022-09-17T13:47:37.551Z,99.90
2022-09-17T13:49:47.080Z,99.90
2022-09-17T13:51:52.056Z,99.90
2022-09-17T13:53:57.402Z,99.90
2022-09-17T13:56:03.471Z,99.90
2022-09-17T13:58:08.915Z,99.90
2022-09-17T14:00:56.307Z,99.90
2022-09-17T14:03:44.411Z,99.90
2022-09-17T14:05:48.666Z,99.90
2022-09-17T14:07:55.552Z,99.90
2022-09-17T14:09:59.323Z,99.90
2022-09-17T14:12:02.303Z,99.90
2022-09-17T14:14:41.916Z,99.90
2022-09-17T14:16:52.896Z,99.90
2022-09-17T14:19:04.174Z,99.90
2022-09-17T14:21:15.417Z,99.90
2022-09-17T14:23:18.136Z,99.90
2022-09-17T14:25:27.489Z,99.90
2022-09-17T14:27:54.808Z,99.90
2022-09-17T14:30:09.274Z,99.90
2022-09-17T14:32:20.681Z,99.90
2022-09-17T14:34:25.632Z,99.90
2022-09-17T14:36:33.897Z,99.90
2022-09-17T14:38:44.397Z,99.90
2022-09-17T14:40:49.305Z,99.90
2022-09-17T14:42:56.475Z,99.90
2022-09-17T14:45:03.130Z,99.90
2022-09-17T14:47:10.438Z,99.90
2022-09-17T14:49:17.215Z,99.90
2022-09-17T14:51:41.111Z,99.90
2022-09-17T14:53:44.145Z,99.90
2022-09-17T14:55:48.607Z,99.90
2022-09-17T14:57:54.312Z,99.90
2022-09-17T14:59:58.598Z,99.90
2022-09-17T15:02:01.577Z,99.90
2022-09-17T15:04:22.999Z,99.90
2022-09-17T15:06:25.767Z,99.90
2022-09-17T15:08:30.218Z,99.90
2022-09-17T15:10:33.284Z,99.90
2022-09-17T15:12:36.646Z,99.90
2022-09-17T15:14:40.674Z,99.90
2022-09-17T15:16:48.739Z,99.90
2022-09-17T15:18:53.572Z,99.90
2022-09-17T15:20:58.305Z,99.90
2022-09-17T15:23:14.976Z,99.90
2022-09-17T15:25:23.847Z,99.90
2022-09-17T15:27:30.544Z,99.90
2022-09-17T15:29:35.183Z,99.90
2022-09-17T15:31:38.245Z,99.90
2022-09-17T15:33:42.655Z,99.90
2022-09-17T15:36:00.170Z,99.90
2022-09-17T15:38:22.784Z,99.90
2022-09-17T15:40:30.643Z,99.90
2022-09-17T15:42:33.355Z,99.90
2022-09-17T15:44:36.176Z,99.90
2022-09-17T15:46:38.912Z,99.90
2022-09-17T15:48:41.687Z,99.90
2022-09-17T15:50:53.229Z,99.90
2022-09-17T15:53:15.611Z,99.90
2022-09-17T15:55:48.474Z,99.90
2022-09-17T15:57:51.655Z,99.90
2022-09-17T15:59:55.022Z,99.90
2022-09-17T16:02:00.289Z,99.90
2022-09-17T16:04:09.917Z,99.90
2022-09-17T16:06:37.062Z,99.90
2022-09-17T16:08:39.828Z,99.90
2022-09-17T16:10:42.560Z,99.90
2022-09-17T16:12:50.212Z,99.90
2022-09-17T16:14:54.426Z,99.90
2022-09-17T16:16:59.454Z,99.90
2022-09-17T16:19:02.217Z,99.90
2022-09-17T16:21:05.887Z,99.90
2022-09-17T16:23:08.643Z,99.90
2022-09-17T16:25:12.404Z,99.90
2022-09-17T16:27:21.964Z,99.90
2022-09-17T16:29:26.015Z,99.90
2022-09-17T16:31:29.523Z,99.90
2022-09-17T16:33:32.282Z,99.90
2022-09-17T16:35:35.152Z,99.90
2022-09-17T16:37:38.019Z,99.90
2022-09-17T16:39:40.752Z,99.90
2022-09-17T16:41:43.529Z,99.90
2022-09-17T16:43:46.728Z,99.90
2022-09-17T16:46:00.829Z,99.90
2022-09-17T16:48:05.335Z,99.90
2022-09-17T16:50:10.077Z,99.90
2022-09-17T16:52:12.967Z,99.90
2022-09-17T16:54:15.677Z,99.90
2022-09-17T16:56:18.619Z,99.90
2022-09-17T16:58:21.327Z,99.90
2022-09-17T17:00:24.106Z,99.90
2022-09-17T17:02:28.398Z,99.90
2022-09-17T17:04:31.141Z,99.90
2022-09-17T17:06:33.870Z,99.90
2022-09-17T17:08:36.816Z,99.90
2022-09-17T17:10:39.783Z,99.90
2022-09-17T17:12:42.880Z,99.90
2022-09-17T17:14:49.819Z,99.90
2022-09-17T17:16:52.512Z,99.90
2022-09-17T17:18:57.545Z,99.90
2022-09-17T17:21:06.203Z,99.90
2022-09-17T17:23:08.918Z,99.90
2022-09-17T17:25:12.610Z,99.90
2022-09-17T17:27:15.331Z,99.90
2022-09-17T17:29:18.898Z,99.90
2022-09-17T17:31:22.195Z,99.90
2022-09-17T17:33:25.046Z,99.90
2022-09-17T17:35:29.158Z,99.90
2022-09-17T17:37:31.960Z,99.90
2022-09-17T17:39:34.608Z,99.90
2022-09-17T17:41:37.743Z,99.90
2022-09-17T17:43:41.050Z,99.90
2022-09-17T17:45:43.747Z,99.90
2022-09-17T17:47:47.730Z,99.90
2022-09-17T17:49:50.424Z,99.90
2022-09-17T17:51:54.418Z,99.90
2022-09-17T17:53:57.420Z,99.90
2022-09-17T17:56:02.340Z,99.90
2022-09-17T17:58:05.104Z,99.90
2022-09-17T18:00:09.465Z,99.90
2022-09-17T18:02:12.510Z,99.90
2022-09-17T18:04:15.379Z,99.90
2022-09-17T18:06:18.251Z,99.90
2022-09-17T18:08:22.318Z,99.90
2022-09-17T18:10:25.338Z,99.90
2022-09-17T18:12:28.184Z,99.90
2022-09-17T18:14:31.015Z,99.90
2022-09-17T18:16:34.164Z,99.90
2022-09-17T18:18:44.185Z,99.90
2022-09-17T18:20:47.940Z,99.90
2022-09-17T18:22:51.027Z,99.90
2022-09-17T18:24:55.115Z,99.90
2022-09-17T18:26:57.876Z,99.90
2022-09-17T18:29:05.609Z,99.90
2022-09-17T18:31:19.260Z,99.90
2022-09-17T18:33:24.826Z,99.90
2022-09-17T18:35:27.853Z,99.90
2022-09-17T18:37:30.652Z,99.90
2022-09-17T18:39:57.338Z,99.90
2022-09-17T18:41:57.664Z,99.90
2022-09-17T18:44:00.902Z,99.90
2022-09-17T18:46:05.169Z,99.90
2022-09-17T18:48:08.347Z,99.90
2022-09-17T18:50:12.588Z,99.90
2022-09-17T18:52:15.336Z,99.90
2022-09-17T18:54:18.380Z,99.90
2022-09-17T18:56:22.914Z,99.90
2022-09-17T18:58:27.239Z,99.90
2022-09-17T19:00:30.507Z,99.90
2022-09-17T19:02:33.639Z,99.90
2022-09-17T19:04:37.595Z,99.90
2022-09-17T19:06:40.684Z,99.90
2022-09-17T19:08:43.980Z,99.90
2022-09-17T19:10:51.363Z,99.90
2022-09-17T19:12:55.184Z,99.90
2022-09-17T19:14:59.282Z,99.90
2022-09-17T19:17:02.399Z,99.90
2022-09-17T19:19:05.140Z,99.90
2022-09-17T19:21:11.036Z,99.90
2022-09-17T19:23:13.874Z,99.90
2022-09-17T19:25:16.650Z,99.90
2022-09-17T19:27:19.358Z,99.90
2022-09-17T19:29:22.097Z,99.90
2022-09-17T19:31:29.120Z,99.90
2022-09-17T19:33:31.977Z,99.90
2022-09-17T19:35:34.755Z,99.90
2022-09-17T19:37:37.480Z,99.90
2022-09-17T19:39:40.249Z,99.90
2022-09-17T19:41:43.195Z,99.90
2022-09-17T19:43:46.625Z,99.90
2022-09-17T19:45:49.385Z,99.90
2022-09-17T19:47:56.499Z,99.90
2022-09-17T19:49:59.513Z,99.90
2022-09-17T19:52:02.712Z,99.90
2022-09-17T19:54:06.660Z,99.90
2022-09-17T19:56:12.331Z,99.90
2022-09-17T19:58:15.305Z,99.90
2022-09-17T20:00:18.477Z,99.90
2022-09-17T20:02:21.370Z,99.90
2022-09-17T20:04:25.896Z,99.90
2022-09-17T20:06:28.707Z,99.90
2022-09-17T20:08:34.325Z,99.90
2022-09-17T20:10:38.624Z,99.90
2022-09-17T20:12:41.723Z,99.90
2022-09-17T20:14:44.428Z,99.90
2022-09-17T20:16:47.274Z,99.90
2022-09-17T20:18:50.650Z,99.90
2022-09-17T20:20:55.062Z,99.90
2022-09-17T20:22:57.805Z,99.90
2022-09-17T20:25:00.634Z,99.90
2022-09-17T20:27:03.426Z,99.90
2022-09-17T20:29:06.304Z,99.90
2022-09-17T20:31:13.320Z,99.90
2022-09-17T20:33:16.936Z,99.90
2022-09-17T20:35:22.189Z,99.90
2022-09-17T20:37:58.629Z,99.90
2022-09-17T20:39:49.187Z,99.90
2022-09-17T20:41:51.966Z,99.90
2022-09-17T20:43:55.751Z,99.90
2022-09-17T20:45:58.653Z,99.90
2022-09-17T20:48:01.361Z,99.90
2022-09-17T20:50:04.248Z,99.90
2022-09-17T20:52:06.963Z,99.90
2022-09-17T20:54:12.159Z,99.90
2022-09-17T20:56:17.284Z,99.90
2022-09-17T20:58:20.173Z,99.90
2022-09-17T21:00:26.066Z,99.90
2022-09-17T21:02:28.863Z,99.90
2022-09-17T21:04:31.579Z,99.90
2022-09-17T21:06:36.542Z,99.90
2022-09-17T21:08:39.387Z,99.90
2022-09-17T21:10:46.143Z,99.90
2022-09-17T21:12:48.824Z,99.90
2022-09-17T21:14:51.564Z,99.90
2022-09-17T21:16:55.400Z,99.90
2022-09-17T21:18:59.299Z,99.90
2022-09-17T21:21:03.061Z,99.90
2022-09-17T21:23:06.119Z,99.90
2022-09-17T21:25:09.576Z,99.90
2022-09-17T21:27:13.916Z,99.90
2022-09-17T21:29:19.826Z,99.90
2022-09-17T21:31:25.440Z,99.90
2022-09-17T21:33:31.260Z,99.90
2022-09-17T21:35:34.551Z,99.90
2022-09-17T21:37:43.315Z,99.90
2022-09-17T21:39:46.309Z,99.90
2022-09-17T21:41:49.259Z,99.90
2022-09-17T21:43:53.582Z,99.90
2022-09-17T21:46:01.724Z,99.90
2022-09-17T21:48:04.673Z,99.90
2022-09-17T21:50:08.227Z,99.90
2022-09-17T21:52:11.128Z,99.90
2022-09-17T21:54:16.781Z,99.90
2022-09-17T21:56:20.604Z,99.90
2022-09-17T21:58:23.468Z,99.90
2022-09-17T22:00:29.047Z,99.90
2022-09-17T22:02:32.020Z,99.90
2022-09-17T22:04:34.931Z,99.90
2022-09-17T22:06:38.640Z,99.90
2022-09-17T22:08:42.037Z,99.90
2022-09-17T22:10:44.849Z,99.90
2022-09-17T22:12:47.753Z,99.90
2022-09-17T22:14:50.499Z,99.90
2022-09-17T22:16:58.639Z,99.90
2022-09-17T22:19:02.848Z,99.90
2022-09-17T22:21:13.019Z,99.90
2022-09-17T22:23:15.816Z,99.90
2022-09-17T22:25:18.647Z,99.90
2022-09-17T22:27:21.433Z,99.90
2022-09-17T22:29:24.984Z,99.90
2022-09-17T22:31:27.918Z,99.90
2022-09-17T22:33:34.580Z,99.90
2022-09-17T22:35:37.399Z,99.90
2022-09-17T22:37:40.412Z,99.90
2022-09-17T22:39:43.307Z,99.90
2022-09-17T22:41:46.150Z,99.90
2022-09-17T22:43:49.459Z,99.90
2022-09-17T22:45:52.209Z,99.90
2022-09-17T22:47:55.444Z,99.90
2022-09-17T22:49:59.672Z,99.90
2022-09-17T22:52:02.982Z,99.90
2022-09-17T22:54:06.388Z,99.90
2022-09-17T22:56:12.031Z,99.90
2022-09-17T22:58:14.731Z,99.90
2022-09-17T23:00:17.684Z,99.90
2022-09-17T23:02:22.284Z,99.90
2022-09-17T23:04:25.214Z,99.90
2022-09-17T23:06:30.973Z,99.90
2022-09-17T23:08:34.805Z,99.90
2022-09-17T23:10:37.607Z,99.90
2022-09-17T23:12:40.476Z,99.90
2022-09-17T23:14:43.131Z,99.90
2022-09-17T23:16:47.579Z,99.90
2022-09-17T23:18:50.713Z,99.90
2022-09-17T23:20:59.295Z,99.90
2022-09-17T23:23:03.652Z,99.90
2022-09-17T23:25:06.693Z,99.90
2022-09-17T23:27:09.412Z,99.90
2022-09-17T23:29:15.411Z,99.90
2022-09-17T23:31:19.905Z,99.90
2022-09-17T23:33:22.913Z,99.90
2022-09-17T23:35:26.788Z,99.90
2022-09-17T23:37:29.476Z,99.90
2022-09-17T23:39:33.491Z,99.90
2022-09-17T23:41:38.055Z,99.90
2022-09-17T23:43:41.216Z,99.90
2022-09-17T23:45:43.863Z,99.90
2022-09-17T23:47:46.583Z,99.90
2022-09-17T23:49:49.870Z,99.90
2022-09-17T23:51:52.548Z,99.90
2022-09-17T23:53:55.722Z,99.90
2022-09-17T23:56:00.415Z,99.90
2022-09-17T23:58:03.708Z,99.90
